Estación meteorológica de Montseny - Vallcàrquera (Vallès Oriental, Parc Natural del Montseny)

Consulta los datos en tiempo real de la estación meteorológica de Montseny - Vallcàrquera





Hora UTC 02:25
Temperatura 20.8 ºC
Humedad 51.4 %
Pluja 0.0 mm
Velocidad viento 1.3 km/h
Dirección viento NE
Radiación solar 0.0 W/m²

Datos diarios 2026-09-06



Hora UTC (invierno +1h; verano +2h)
Temperatura (ºC) Humedad (%) Velocidad viento (km/h) Precipitación (mm) Radiación solar (W/m²)
Hora UTC Aire Humedad Vel. Dir. Vel. Max Dir. Intent. máx 5 min. Rad. Sol.
00:05 21.4 49.2 2.3 NE 2.3 ENE 0.0 0.0
00:10 21.4 49.4 4.2 ENE 7.4 ENE 0.0 0.0
00:15 21.6 48.8 3.8 NE 6.7 ENE 0.0 0.0
00:20 21.6 48.8 2.1 NE 4.6 ENE 0.0 0.0
00:25 21.7 48.0 2.3 NE 4.2 NNE 0.0 0.0
00:30 21.9 47.5 2.1 NE 4.9 ENE 0.0 0.0
00:35 21.6 48.5 2.5 NE 4.6 ENE 0.0 0.0
00:40 21.6 48.7 2.1 NNE 4.6 ENE 0.0 0.0
00:45 21.7 48.0 1.7 NNE 3.5 ENE 0.0 0.0
00:50 21.9 46.9 1.8 NNE 2.8 NE 0.0 0.0
00:55 21.9 47.4 2.3 NNE 3.9 NE 0.0 0.0
01:00 21.8 47.2 1.3 NNE 3.5 NE 0.0 0.0
01:05 21.8 47.9 0.6 NNE 1.8 N 0.0 0.0
01:10 21.6 48.3 1.5 NNE 2.5 NNE 0.0 0.0
01:15 21.7 48.2 2.3 NNE 3.5 NE 0.0 0.0
01:20 21.5 48.4 2.1 NE 3.9 ENE 0.0 0.0
01:25 21.3 48.7 2.4 NE 3.5 ENE 0.0 0.0
01:30 21.3 48.8 2.4 NE 3.9 ENE 0.0 0.0
01:35 21.2 48.8 1.6 NE 3.2 NE 0.0 0.0
01:40 21.2 48.6 2.2 NE 5.3 ENE 0.0 0.0
01:45 21.3 48.9 1.4 N 3.2 NE 0.0 0.0
01:50 21.3 48.7 2.4 NE 3.5 ENE 0.0 0.0
01:55 21.1 49.6 2.1 NE 4.2 ENE 0.0 0.0
02:00 20.9 49.8 2.3 NE 4.2 ENE 0.0 0.0
02:05 20.9 50.1 1.2 NNE 2.5 N 0.0 0.0
02:10 21.0 49.5 2.5 NE 3.9 ENE 0.0 0.0
02:15 21.1 49.5 1.9 NNE 2.8 N 0.0 0.0
02:20 21.0 50.5 1.8 NE 4.6 E 0.0 0.0
02:25 20.8 51.4 1.3 NE 3.5 ENE 0.0 0.0
Máxima 21.9 51.4 4.2 ENE 7.4 ENE 0.0 0.0
Mínima 20 46.9
Total 0.0